createdAt,value
2023-04-22T00:00:50.310Z,100185.56
2023-04-22T00:03:23.428Z,100189.41
2023-04-22T00:05:56.666Z,100191.34
2023-04-22T00:08:29.530Z,100190.66
2023-04-22T00:11:02.387Z,100192.69
2023-04-22T00:13:35.197Z,100192.03
2023-04-22T00:16:09.529Z,100184.16
2023-04-22T00:18:43.089Z,100179.81
2023-04-22T00:21:15.951Z,100175.50
2023-04-22T00:23:48.755Z,100180.91
2023-04-22T00:26:21.784Z,100180.16
2023-04-22T00:28:54.656Z,100172.25
2023-04-22T00:31:29.012Z,100179.38
2023-04-22T00:34:01.908Z,100180.31
2023-04-22T00:36:34.812Z,100167.91
2023-04-22T00:39:07.639Z,100180.44
2023-04-22T00:41:40.688Z,100175.13
2023-04-22T00:44:16.613Z,100173.38
2023-04-22T00:46:52.060Z,100173.38
2023-04-22T00:49:27.496Z,100174.28
2023-04-22T00:52:00.299Z,100179.69
2023-04-22T00:54:35.209Z,100178.25
2023-04-22T00:57:08.072Z,100180.25
2023-04-22T00:59:41.458Z,100180.50
2023-04-22T01:02:16.823Z,100185.97
2023-04-22T01:04:50.080Z,100179.03
2023-04-22T01:07:22.949Z,100181.03
2023-04-22T01:09:55.749Z,100173.97
2023-04-22T01:12:28.598Z,100179.47
2023-04-22T01:15:04.343Z,100177.97
2023-04-22T01:17:39.107Z,100175.50
2023-04-22T01:20:13.921Z,100173.81
2023-04-22T01:22:49.760Z,100178.34
2023-04-22T01:25:24.122Z,100166.97
2023-04-22T01:27:58.151Z,100171.50
2023-04-22T01:30:31.069Z,100176.88
2023-04-22T01:33:04.076Z,100177.94
2023-04-22T01:35:37.741Z,100175.38
2023-04-22T01:38:12.051Z,100182.72
2023-04-22T01:40:46.308Z,100171.38
2023-04-22T01:43:19.129Z,100178.59
2023-04-22T01:45:52.078Z,100177.03
2023-04-22T01:48:25.265Z,100179.88
2023-04-22T01:50:58.117Z,100182.72
2023-04-22T01:53:31.158Z,100175.75
2023-04-22T01:56:05.676Z,100180.34
2023-04-22T01:58:40.313Z,100175.25
2023-04-22T02:01:14.107Z,100174.50
2023-04-22T02:03:46.847Z,100172.34
2023-04-22T02:06:20.127Z,100179.94
2023-04-22T02:08:52.937Z,100177.44
2023-04-22T02:11:27.155Z,100178.56
2023-04-22T02:14:00.110Z,100180.53
2023-04-22T02:16:33.116Z,100178.00
2023-04-22T02:19:06.304Z,100168.34
2023-04-22T02:21:40.124Z,100168.44
2023-04-22T02:24:12.941Z,100165.00
2023-04-22T02:26:47.348Z,100160.72
2023-04-22T02:29:20.246Z,100163.38
2023-04-22T02:31:53.369Z,100170.50
2023-04-22T02:34:26.433Z,100164.28
2023-04-22T02:37:00.370Z,100168.81
2023-04-22T02:39:33.256Z,100165.34
2023-04-22T02:42:07.912Z,100165.41
2023-04-22T02:44:41.148Z,100161.06
2023-04-22T02:47:13.992Z,100159.41
2023-04-22T02:49:46.823Z,100157.72
2023-04-22T02:52:20.175Z,100159.63
2023-04-22T02:54:52.960Z,100154.34
2023-04-22T02:57:27.176Z,100157.13
2023-04-22T03:00:00.009Z,100151.94
2023-04-22T03:02:33.089Z,100158.16
2023-04-22T03:05:32.347Z,100149.44
2023-04-22T03:08:06.438Z,100160.19
2023-04-22T03:10:39.429Z,100154.91
2023-04-22T03:13:15.180Z,100165.66
2023-04-22T03:15:48.323Z,100162.19
2023-04-22T03:18:21.453Z,100164.97
2023-04-22T03:20:54.264Z,100162.44
2023-04-22T03:23:27.183Z,100164.34
2023-04-22T03:26:00.055Z,100167.97
2023-04-22T03:28:35.151Z,100174.28
2023-04-22T03:31:08.319Z,100169.06
2023-04-22T03:33:41.507Z,100176.25
2023-04-22T03:36:22.867Z,100169.22
2023-04-22T03:38:55.734Z,100171.94
2023-04-22T03:41:31.143Z,100170.25
2023-04-22T03:44:05.601Z,100172.16
2023-04-22T03:46:39.947Z,100176.66
2023-04-22T03:49:25.111Z,100179.38
2023-04-22T03:51:58.004Z,100187.34
2023-04-22T03:54:31.158Z,100187.41
2023-04-22T03:57:04.066Z,100184.69
2023-04-22T03:59:38.620Z,100182.88
2023-04-22T04:02:12.359Z,100186.41
2023-04-22T04:04:45.677Z,100183.69
2023-04-22T04:07:18.829Z,100190.66
2023-04-22T04:09:51.684Z,100187.78
2023-04-22T04:12:24.578Z,100187.56
2023-04-22T04:14:58.820Z,100186.47
2023-04-22T04:17:31.819Z,100187.94
2023-04-22T04:20:08.368Z,100186.78
2023-04-22T04:22:42.812Z,100189.16
2023-04-22T04:25:18.331Z,100191.47
2023-04-22T04:27:52.715Z,100189.28
2023-04-22T04:30:27.168Z,100184.59
2023-04-22T04:33:06.864Z,100186.00
2023-04-22T04:35:41.633Z,100186.44
2023-04-22T04:38:16.652Z,100187.88
2023-04-22T04:40:51.320Z,100192.75
2023-04-22T04:43:29.416Z,100194.03
2023-04-22T04:46:18.213Z,100190.88
2023-04-22T04:48:54.040Z,100190.38
2023-04-22T04:51:27.279Z,100195.25
2023-04-22T04:54:03.690Z,100194.75
2023-04-22T04:56:41.676Z,100194.16
2023-04-22T04:59:15.898Z,100189.19
2023-04-22T05:04:23.956Z,100187.16
2023-04-22T05:06:56.993Z,100181.22
2023-04-22T05:09:30.515Z,100172.59
2023-04-22T05:12:03.377Z,100175.56
2023-04-22T05:14:36.438Z,100179.38
2023-04-22T05:17:10.860Z,100178.81
2023-04-22T05:19:43.739Z,100182.66
2023-04-22T05:22:18.007Z,100178.63
2023-04-22T05:24:52.607Z,100178.81
2023-04-22T05:27:26.268Z,100172.78
2023-04-22T05:29:59.258Z,100179.09
2023-04-22T05:32:38.210Z,100180.13
2023-04-22T05:35:12.518Z,100175.88
2023-04-22T05:37:45.733Z,100184.94
2023-04-22T05:40:18.692Z,100176.16
2023-04-22T05:42:51.634Z,100181.56
2023-04-22T05:45:24.505Z,100181.69
2023-04-22T05:47:58.788Z,100172.03
2023-04-22T05:50:35.951Z,100174.47
2023-04-22T05:53:13.568Z,100168.94
2023-04-22T05:55:46.846Z,100175.84
2023-04-22T05:58:19.873Z,100177.59
2023-04-22T06:00:58.956Z,100180.91
2023-04-22T06:04:06.667Z,100172.38
2023-04-22T06:06:40.232Z,100175.63
2023-04-22T06:09:13.035Z,100176.41
2023-04-22T06:11:47.992Z,100166.50
2023-04-22T06:14:20.892Z,100169.00
2023-04-22T06:16:53.988Z,100171.34
2023-04-22T06:19:28.408Z,100166.56
2023-04-22T06:22:01.320Z,100165.44
2023-04-22T06:24:34.254Z,100170.72
2023-04-22T06:27:07.025Z,100158.09
2023-04-22T06:29:48.088Z,100156.16
2023-04-22T06:32:21.170Z,100166.28
2023-04-22T06:34:55.392Z,100166.31
2023-04-22T06:37:28.469Z,100161.69
2023-04-22T06:40:01.386Z,100166.56
2023-04-22T06:42:57.098Z,100169.72
2023-04-22T06:45:48.671Z,100165.72
2023-04-22T06:48:44.416Z,100167.84
2023-04-22T06:51:39.197Z,100162.94
2023-04-22T06:54:13.229Z,100166.13
2023-04-22T06:56:46.180Z,100163.13
2023-04-22T06:59:19.395Z,100167.09
2023-04-22T07:01:53.146Z,100171.44
2023-04-22T07:04:27.684Z,100171.25
2023-04-22T07:07:03.076Z,100171.66
2023-04-22T07:09:36.329Z,100170.25
2023-04-22T07:12:09.258Z,100172.50
2023-04-22T07:14:44.376Z,100165.16
2023-04-22T07:17:19.402Z,100167.75
2023-04-22T07:19:53.408Z,100172.78
2023-04-22T07:22:27.658Z,100174.00
2023-04-22T07:25:00.565Z,100169.53
2023-04-22T07:27:35.154Z,100172.41
2023-04-22T07:30:09.623Z,100164.53
2023-04-22T07:32:42.464Z,100164.81
2023-04-22T07:35:15.307Z,100165.97
2023-04-22T07:37:49.524Z,100162.75
2023-04-22T07:40:22.393Z,100163.31
2023-04-22T07:42:55.488Z,100157.72
2023-04-22T07:45:28.669Z,100158.78
2023-04-22T07:48:01.614Z,100159.56
2023-04-22T07:50:35.217Z,100154.66
2023-04-22T07:53:10.857Z,100163.56
2023-04-22T07:55:43.801Z,100164.53
2023-04-22T07:58:16.721Z,100163.50
2023-04-22T08:00:49.744Z,100158.16
2023-04-22T08:03:22.895Z,100169.19
2023-04-22T08:05:58.159Z,100157.69
2023-04-22T08:08:32.516Z,100158.25
2023-04-22T08:11:05.748Z,100153.34
2023-04-22T08:13:38.389Z,100160.72
2023-04-22T08:16:11.347Z,100163.41
2023-04-22T08:18:44.269Z,100154.78
2023-04-22T08:21:17.174Z,100151.88
2023-04-22T08:23:52.102Z,100147.59
2023-04-22T08:26:25.642Z,100157.03
2023-04-22T08:28:58.511Z,100152.16
2023-04-22T08:31:31.723Z,100150.72
2023-04-22T08:34:04.787Z,100144.91
2023-04-22T08:36:37.698Z,100146.09
2023-04-22T08:39:12.517Z,100145.13
2023-04-22T08:41:46.930Z,100142.16
2023-04-22T08:44:21.293Z,100147.19
2023-04-22T08:46:55.990Z,100145.69
2023-04-22T08:49:31.281Z,100144.41
2023-04-22T08:52:04.208Z,100155.50
2023-04-22T08:54:38.478Z,100154.59
2023-04-22T08:57:12.114Z,100156.16
2023-04-22T08:59:45.833Z,100158.22
2023-04-22T09:02:21.943Z,100148.53
2023-04-22T09:04:54.915Z,100150.88
2023-04-22T09:07:29.622Z,100145.66
2023-04-22T09:10:04.244Z,100143.03
2023-04-22T09:12:40.387Z,100145.47
2023-04-22T09:15:13.697Z,100143.13
2023-04-22T09:17:46.559Z,100150.28
2023-04-22T09:20:20.065Z,100140.78
2023-04-22T09:22:54.195Z,100131.00
2023-04-22T09:25:29.168Z,100135.13
2023-04-22T09:28:02.202Z,100138.19
2023-04-22T09:30:37.786Z,100140.56
2023-04-22T09:33:10.858Z,100135.28
2023-04-22T09:35:45.012Z,100125.44
2023-04-22T09:38:17.956Z,100127.63
2023-04-22T09:40:52.350Z,100120.34
2023-04-22T09:43:25.277Z,100124.06
2023-04-22T09:46:01.153Z,100113.09
2023-04-22T09:48:34.085Z,100117.16
2023-04-22T09:51:16.124Z,100112.16
2023-04-22T09:53:59.544Z,100106.03
2023-04-22T09:56:45.013Z,100098.78
2023-04-22T09:59:22.967Z,100102.78
2023-04-22T10:01:58.989Z,100102.22
2023-04-22T10:04:32.128Z,100100.91
2023-04-22T10:07:05.120Z,100100.72
2023-04-22T10:09:38.368Z,100101.38
2023-04-22T10:12:14.060Z,100103.19
2023-04-22T10:14:47.142Z,100107.56
2023-04-22T10:17:20.782Z,100096.28
2023-04-22T10:19:56.392Z,100105.59
2023-04-22T10:22:29.376Z,100093.03
2023-04-22T10:25:02.319Z,100088.97
2023-04-22T10:27:36.657Z,100082.16
2023-04-22T10:30:12.246Z,100078.28
2023-04-22T10:32:45.151Z,100077.94
2023-04-22T10:35:18.033Z,100081.81
2023-04-22T10:37:50.970Z,100084.13
2023-04-22T10:40:24.278Z,100075.63
2023-04-22T10:43:03.503Z,100078.66
2023-04-22T10:45:36.846Z,100071.88
2023-04-22T10:48:09.686Z,100078.78
2023-04-22T10:50:42.565Z,100074.75
2023-04-22T10:53:37.682Z,100065.63
2023-04-22T10:56:19.452Z,100067.91
2023-04-22T10:58:53.934Z,100062.69
2023-04-22T11:01:29.277Z,100062.16
2023-04-22T11:04:23.882Z,100054.78
2023-04-22T11:07:31.859Z,100060.81
2023-04-22T11:10:15.889Z,100053.22
2023-04-22T11:12:51.002Z,100044.66
2023-04-22T11:15:25.501Z,100044.66
2023-04-22T11:17:58.783Z,100045.91
2023-04-22T11:20:31.976Z,100046.41
2023-04-22T11:23:05.530Z,100038.56
2023-04-22T11:25:38.560Z,100038.03
2023-04-22T11:28:11.665Z,100035.09
2023-04-22T11:30:45.947Z,100027.91
2023-04-22T11:33:20.145Z,100035.41
2023-04-22T11:35:53.107Z,100026.88
2023-04-22T11:38:26.034Z,100030.00
2023-04-22T11:40:59.003Z,100031.53
2023-04-22T11:43:32.133Z,100015.13
2023-04-22T11:46:07.983Z,100014.97
2023-04-22T11:48:40.885Z,100024.00
2023-04-22T11:51:13.929Z,100029.16
2023-04-22T11:53:52.018Z,100019.44
2023-04-22T11:56:25.051Z,100019.88
2023-04-22T11:58:57.963Z,100013.38
2023-04-22T12:01:32.739Z,100011.78
2023-04-22T12:04:05.675Z,100015.22
2023-04-22T12:06:42.350Z,100006.72
2023-04-22T12:09:15.401Z,100015.78
2023-04-22T12:11:48.436Z,100013.72
2023-04-22T12:14:21.473Z,100008.22
2023-04-22T12:16:55.916Z,100015.41
2023-04-22T12:19:31.937Z,100018.13
2023-04-22T12:22:04.996Z,100016.41
2023-04-22T12:24:46.812Z,100018.47
2023-04-22T12:27:19.682Z,100008.59
2023-04-22T12:29:52.818Z,100003.28
2023-04-22T12:32:30.515Z,100003.59
2023-04-22T12:35:03.607Z,100002.59
2023-04-22T12:37:39.137Z,100004.53
2023-04-22T12:40:12.806Z,99989.94
2023-04-22T12:42:45.674Z,99998.84
2023-04-22T12:45:18.603Z,99990.25
2023-04-22T12:47:55.374Z,99992.69
2023-04-22T12:50:28.454Z,99985.25
2023-04-22T12:53:01.451Z,99985.69
2023-04-22T12:56:04.823Z,99971.81
2023-04-22T12:58:45.297Z,99981.69
2023-04-22T13:01:18.342Z,99976.94
2023-04-22T13:03:53.310Z,99973.88
2023-04-22T13:06:26.892Z,99980.69
2023-04-22T13:08:59.906Z,99979.25
2023-04-22T13:11:32.589Z,99962.91
2023-04-22T13:14:05.651Z,99977.84
2023-04-22T13:16:38.571Z,99964.34
2023-04-22T13:19:13.272Z,99959.97
2023-04-22T13:21:46.116Z,99963.09
2023-04-22T13:24:23.702Z,99958.47
2023-04-22T13:26:57.353Z,99958.84
2023-04-22T13:29:30.314Z,99956.47
2023-04-22T13:32:04.439Z,99951.38
2023-04-22T13:34:39.685Z,99951.72
2023-04-22T13:37:14.974Z,99951.88
2023-04-22T13:39:48.309Z,99953.44
2023-04-22T13:42:21.736Z,99944.00
2023-04-22T13:44:56.435Z,99948.13
2023-04-22T13:47:29.354Z,99952.19
2023-04-22T13:50:05.559Z,99945.56
2023-04-22T13:52:38.463Z,99948.09
2023-04-22T13:55:11.822Z,99947.06
2023-04-22T13:57:47.890Z,99940.97
2023-04-22T14:00:21.181Z,99933.00
2023-04-22T14:02:54.259Z,99936.63
2023-04-22T14:05:28.608Z,99933.34
2023-04-22T14:08:05.424Z,99926.53
2023-04-22T14:10:38.242Z,99927.66
2023-04-22T14:13:11.185Z,99919.59
2023-04-22T14:15:44.192Z,99927.38
2023-04-22T14:18:17.236Z,99923.25
2023-04-22T14:21:04.329Z,99922.16
2023-04-22T14:23:38.741Z,99919.69
2023-04-22T14:26:14.531Z,99925.91
2023-04-22T14:28:47.593Z,99931.16
2023-04-22T14:31:21.122Z,99921.94
2023-04-22T14:33:54.140Z,99924.38
2023-04-22T14:36:28.734Z,99917.97
2023-04-22T14:39:01.842Z,99919.47
2023-04-22T14:41:34.920Z,99930.25
2023-04-22T14:44:07.956Z,99924.16
2023-04-22T14:46:41.299Z,99922.63
2023-04-22T14:49:14.378Z,99906.09
2023-04-22T14:51:49.293Z,99915.06
2023-04-22T14:54:22.252Z,99921.91
2023-04-22T14:56:56.068Z,99920.91
2023-04-22T14:59:29.038Z,99910.50
2023-04-22T15:02:02.176Z,99913.56
2023-04-22T15:04:35.321Z,99912.03
2023-04-22T15:07:10.060Z,99911.06
2023-04-22T15:09:43.720Z,99899.25
2023-04-22T15:12:16.798Z,99914.84
2023-04-22T15:14:49.870Z,99908.66
2023-04-22T15:17:23.498Z,99904.50
2023-04-22T15:19:57.736Z,99912.81
2023-04-22T15:22:32.706Z,99906.50
2023-04-22T15:25:06.433Z,99906.50
2023-04-22T15:27:39.811Z,99910.94
2023-04-22T15:30:13.089Z,99904.66
2023-04-22T15:32:46.127Z,99906.88
2023-04-22T15:35:20.203Z,99909.44
2023-04-22T15:37:54.476Z,99907.63
2023-04-22T15:40:27.374Z,99911.19
2023-04-22T15:43:00.373Z,99913.91
2023-04-22T15:45:35.314Z,99910.19
2023-04-22T15:48:08.274Z,99906.75
2023-04-22T15:50:41.236Z,99913.91
2023-04-22T15:53:15.551Z,99902.63
2023-04-22T15:55:48.788Z,99898.34
2023-04-22T15:58:21.577Z,99898.13
2023-04-22T16:00:56.320Z,99895.78
2023-04-22T16:03:31.654Z,99894.94
2023-04-22T16:06:05.107Z,99893.50
2023-04-22T16:08:39.307Z,99896.19
2023-04-22T16:11:12.576Z,99888.53
2023-04-22T16:13:46.393Z,99896.13
2023-04-22T16:16:19.297Z,99885.72
2023-04-22T16:18:52.283Z,99892.03
2023-04-22T16:21:25.394Z,99893.16
2023-04-22T16:24:00.869Z,99892.31
2023-04-22T16:26:33.801Z,99892.31
2023-04-22T16:29:06.690Z,99891.59
2023-04-22T16:31:39.725Z,99887.47
2023-04-22T16:34:12.630Z,99891.34
2023-04-22T16:36:45.595Z,99887.06
2023-04-22T16:39:19.837Z,99889.94
2023-04-22T16:41:52.783Z,99889.50
2023-04-22T16:44:25.770Z,99891.38
2023-04-22T16:46:58.767Z,99889.66
2023-04-22T16:49:31.696Z,99888.94
2023-04-22T16:52:04.947Z,99892.97
2023-04-22T16:54:40.771Z,99888.16
2023-04-22T16:57:13.934Z,99885.88
2023-04-22T16:59:47.533Z,99889.72
2023-04-22T17:02:20.758Z,99890.00
2023-04-22T17:04:53.816Z,99886.03
2023-04-22T17:07:26.846Z,99884.88
2023-04-22T17:10:01.143Z,99888.31
2023-04-22T17:12:34.100Z,99890.91
2023-04-22T17:15:08.498Z,99886.19
2023-04-22T17:17:41.822Z,99889.50
2023-04-22T17:20:14.963Z,99894.63
2023-04-22T17:22:48.158Z,99892.47
2023-04-22T17:25:22.726Z,99889.34
2023-04-22T17:28:11.042Z,99881.91
2023-04-22T17:30:44.425Z,99886.78
2023-04-22T17:36:12.140Z,99886.06
2023-04-22T17:38:45.952Z,99888.78
2023-04-22T17:41:26.894Z,99898.41
2023-04-22T17:44:04.308Z,99890.97
2023-04-22T17:46:37.422Z,99894.25
2023-04-22T17:49:17.229Z,99889.53
2023-04-22T17:51:56.555Z,99893.78
2023-04-22T17:54:29.530Z,99892.78
2023-04-22T17:57:04.100Z,99901.56
2023-04-22T17:59:40.364Z,99899.56
2023-04-22T18:02:27.167Z,99895.78
2023-04-22T18:05:00.164Z,99898.31
2023-04-22T18:07:33.111Z,99903.44
2023-04-22T18:10:07.399Z,99903.13
2023-04-22T18:12:43.384Z,99906.31
2023-04-22T18:15:16.424Z,99906.84
2023-04-22T18:17:49.278Z,99909.09
2023-04-22T18:20:22.425Z,99903.25
2023-04-22T18:22:56.347Z,99902.75
2023-04-22T18:25:29.427Z,99905.13
2023-04-22T18:28:03.694Z,99911.81
2023-04-22T18:30:36.750Z,99909.63
2023-04-22T18:33:13.936Z,99909.31
2023-04-22T18:35:47.470Z,99909.81
2023-04-22T18:38:21.740Z,99913.78
2023-04-22T18:40:54.680Z,99917.88
2023-04-22T18:43:29.038Z,99917.50
2023-04-22T18:46:01.887Z,99919.75
2023-04-22T18:48:34.792Z,99929.09
2023-04-22T18:51:07.714Z,99924.09
2023-04-22T18:53:42.759Z,99926.44
2023-04-22T18:56:15.764Z,99918.81
2023-04-22T18:58:50.154Z,99913.06
2023-04-22T19:01:23.136Z,99918.09
2023-04-22T19:03:56.200Z,99919.34
2023-04-22T19:06:29.812Z,99917.88
2023-04-22T19:09:04.571Z,99910.13
2023-04-22T19:11:37.471Z,99912.13
2023-04-22T19:14:13.697Z,99912.63
2023-04-22T19:16:46.619Z,99912.03
2023-04-22T19:19:19.535Z,99907.00
2023-04-22T19:21:52.594Z,99911.91
2023-04-22T19:24:32.036Z,99908.75
2023-04-22T19:27:07.130Z,99914.50
2023-04-22T19:29:42.805Z,99914.00
2023-04-22T19:32:15.971Z,99926.03
2023-04-22T19:34:50.211Z,99914.50
2023-04-22T19:37:23.067Z,99918.53
2023-04-22T19:39:56.086Z,99908.97
2023-04-22T19:42:29.116Z,99912.78
2023-04-22T19:45:04.046Z,99910.56
2023-04-22T19:47:37.246Z,99913.50
2023-04-22T19:50:11.372Z,99910.31
2023-04-22T19:52:47.039Z,99908.94
2023-04-22T19:55:20.994Z,99912.97
2023-04-22T19:57:54.564Z,99917.84
2023-04-22T20:00:28.744Z,99912.97
2023-04-22T20:03:02.251Z,99905.97
2023-04-22T20:05:35.620Z,99905.50
2023-04-22T20:08:09.022Z,99903.13
2023-04-22T20:10:42.460Z,99914.38
2023-04-22T20:13:15.648Z,99915.72
2023-04-22T20:15:50.833Z,99902.63
2023-04-22T20:18:24.019Z,99915.44
2023-04-22T20:20:58.593Z,99908.69
2023-04-22T20:23:34.539Z,99905.50
2023-04-22T20:26:08.301Z,99906.81
2023-04-22T20:28:46.044Z,99899.09
2023-04-22T20:31:22.593Z,99900.31
2023-04-22T20:33:57.227Z,99903.00
2023-04-22T20:36:30.662Z,99894.03
2023-04-22T20:39:06.064Z,99903.97
2023-04-22T20:41:39.884Z,99896.13
2023-04-22T20:44:14.209Z,99901.50
2023-04-22T20:46:48.790Z,99903.59
2023-04-22T20:49:22.045Z,99902.69
2023-04-22T20:51:56.274Z,99900.13
2023-04-22T20:54:29.583Z,99899.00
2023-04-22T20:57:03.565Z,99902.06
2023-04-22T20:59:37.018Z,99894.47
2023-04-22T21:02:12.270Z,99893.78
2023-04-22T21:04:45.474Z,99896.66
2023-04-22T21:07:20.397Z,99889.03
2023-04-22T21:09:53.603Z,99900.97
2023-04-22T21:12:27.279Z,99893.00
2023-04-22T21:15:00.380Z,99893.22
2023-04-22T21:17:36.420Z,99889.25
2023-04-22T21:20:10.889Z,99889.25
2023-04-22T21:22:44.403Z,99897.31
2023-04-22T21:25:23.182Z,99891.94
2023-04-22T21:27:56.500Z,99892.91
2023-04-22T21:30:30.086Z,99892.16
2023-04-22T21:33:04.103Z,99890.53
2023-04-22T21:35:39.191Z,99888.59
2023-04-22T21:38:12.091Z,99891.63
2023-04-22T21:40:44.927Z,99886.47
2023-04-22T21:43:17.762Z,99893.88
2023-04-22T21:45:50.693Z,99896.78
2023-04-22T21:48:24.891Z,99898.72
2023-04-22T21:50:57.817Z,99897.13
2023-04-22T21:53:30.748Z,99893.66
2023-04-22T21:56:03.608Z,99902.72
2023-04-22T21:58:36.417Z,99893.88
2023-04-22T22:01:09.343Z,99896.78
2023-04-22T22:03:43.644Z,99891.72
2023-04-22T22:06:16.568Z,99904.38
2023-04-22T22:08:49.362Z,99897.50
2023-04-22T22:13:57.962Z,99896.19
2023-04-22T22:16:31.021Z,99894.81
2023-04-22T22:19:06.447Z,99897.69
2023-04-22T22:21:39.379Z,99895.22
2023-04-22T22:24:12.303Z,99896.28
2023-04-22T22:26:45.520Z,99894.91
2023-04-22T22:29:18.503Z,99902.16
2023-04-22T22:31:51.412Z,99907.94
2023-04-22T22:34:25.585Z,99903.88
2023-04-22T22:36:58.500Z,99897.97
2023-04-22T22:39:31.318Z,99899.00
2023-04-22T22:42:04.394Z,99890.41
2023-04-22T22:44:37.216Z,99894.16
2023-04-22T22:47:10.852Z,99892.56
2023-04-22T22:49:44.898Z,99892.00
2023-04-22T22:52:17.877Z,99888.44
2023-04-22T22:54:50.948Z,99891.44
2023-04-22T22:57:23.796Z,99894.41
2023-04-22T22:59:56.615Z,99897.28
2023-04-22T23:02:29.585Z,99893.97
2023-04-22T23:05:04.002Z,99895.00
2023-04-22T23:07:37.088Z,99890.72
2023-04-22T23:10:10.676Z,99898.13
2023-04-22T23:12:43.548Z,99896.59
2023-04-22T23:15:16.468Z,99896.88
2023-04-22T23:17:51.119Z,99891.91
2023-04-22T23:20:26.445Z,99893.09
2023-04-22T23:23:02.410Z,99891.75
2023-04-22T23:25:35.791Z,99880.34
2023-04-22T23:28:09.070Z,99889.63
2023-04-22T23:30:43.956Z,99885.44
2023-04-22T23:33:17.550Z,99886.56
2023-04-22T23:35:53.262Z,99885.06
2023-04-22T23:38:27.261Z,99878.16
2023-04-22T23:41:00.127Z,99885.53
2023-04-22T23:43:32.994Z,99875.88
2023-04-22T23:46:06.290Z,99873.28
2023-04-22T23:48:39.119Z,99875.31
2023-04-22T23:51:16.157Z,99875.59
2023-04-22T23:53:49.038Z,99873.00
2023-04-22T23:56:23.003Z,99871.47
2023-04-22T23:58:56.373Z,99873.56
